sensor_id;sensor_type;location;lat;lon;timestamp;P1;durP1;ratioP1;P2;durP2;ratioP2
59685;SDS011;45554;51.096;16.976;2022-09-21T00:03:20;11.50;;;3.80;;
59685;SDS011;45554;51.096;16.976;2022-09-21T00:06:00;8.90;;;4.20;;
59685;SDS011;45554;51.096;16.976;2022-09-21T00:09:02;13.30;;;4.30;;
59685;SDS011;45554;51.096;16.976;2022-09-21T00:11:51;9.70;;;4.30;;
59685;SDS011;45554;51.096;16.976;2022-09-21T00:14:51;8.30;;;3.90;;
59685;SDS011;45554;51.096;16.976;2022-09-21T00:17:45;9.90;;;4.00;;
59685;SDS011;45554;51.096;16.976;2022-09-21T00:20:30;7.60;;;3.80;;
59685;SDS011;45554;51.096;16.976;2022-09-21T00:23:03;9.00;;;4.20;;
59685;SDS011;45554;51.096;16.976;2022-09-21T00:25:51;8.20;;;3.80;;
59685;SDS011;45554;51.096;16.976;2022-09-21T00:28:59;7.20;;;4.10;;
59685;SDS011;45554;51.096;16.976;2022-09-21T00:31:48;7.50;;;3.90;;
59685;SDS011;45554;51.096;16.976;2022-09-21T00:37:52;7.20;;;4.00;;
59685;SDS011;45554;51.096;16.976;2022-09-21T00:40:54;6.90;;;3.50;;
59685;SDS011;45554;51.096;16.976;2022-09-21T00:47:16;11.10;;;3.90;;
59685;SDS011;45554;51.096;16.976;2022-09-21T00:50:04;7.90;;;3.20;;
59685;SDS011;45554;51.096;16.976;2022-09-21T00:52:55;5.90;;;3.40;;
59685;SDS011;45554;51.096;16.976;2022-09-21T00:55:32;6.60;;;3.20;;
59685;SDS011;45554;51.096;16.976;2022-09-21T00:58:37;6.40;;;3.20;;
59685;SDS011;45554;51.096;16.976;2022-09-21T01:01:38;6.50;;;3.00;;
59685;SDS011;45554;51.096;16.976;2022-09-21T01:04:22;8.90;;;2.90;;
59685;SDS011;45554;51.096;16.976;2022-09-21T01:07:09;5.80;;;3.10;;
59685;SDS011;45554;51.096;16.976;2022-09-21T01:10:09;7.70;;;3.50;;
59685;SDS011;45554;51.096;16.976;2022-09-21T01:12:57;6.60;;;3.20;;
59685;SDS011;45554;51.096;16.976;2022-09-21T01:33:13;8.40;;;3.40;;
59685;SDS011;45554;51.096;16.976;2022-09-21T01:36:14;9.00;;;3.10;;
59685;SDS011;45554;51.096;16.976;2022-09-21T01:39:13;7.20;;;2.90;;
59685;SDS011;45554;51.096;16.976;2022-09-21T01:42:17;6.20;;;3.00;;
59685;SDS011;45554;51.096;16.976;2022-09-21T01:45:41;7.20;;;2.80;;
59685;SDS011;45554;51.096;16.976;2022-09-21T01:48:34;5.30;;;2.60;;
59685;SDS011;45554;51.096;16.976;2022-09-21T01:51:31;7.10;;;3.10;;
59685;SDS011;45554;51.096;16.976;2022-09-21T01:54:18;6.10;;;3.10;;
59685;SDS011;45554;51.096;16.976;2022-09-21T01:57:04;7.40;;;2.70;;
59685;SDS011;45554;51.096;16.976;2022-09-21T02:03:08;6.90;;;2.90;;
59685;SDS011;45554;51.096;16.976;2022-09-21T02:08:52;6.10;;;3.00;;
59685;SDS011;45554;51.096;16.976;2022-09-21T02:18:04;7.60;;;3.00;;
59685;SDS011;45554;51.096;16.976;2022-09-21T02:31:25;6.60;;;2.70;;
59685;SDS011;45554;51.096;16.976;2022-09-21T02:34:21;6.20;;;2.60;;
59685;SDS011;45554;51.096;16.976;2022-09-21T02:40:50;8.30;;;2.80;;
59685;SDS011;45554;51.096;16.976;2022-09-21T02:50:35;5.50;;;2.80;;
59685;SDS011;45554;51.096;16.976;2022-09-21T02:53:43;6.40;;;3.00;;
59685;SDS011;45554;51.096;16.976;2022-09-21T02:56:40;6.20;;;2.80;;
59685;SDS011;45554;51.096;16.976;2022-09-21T03:00:18;6.60;;;3.20;;
59685;SDS011;45554;51.096;16.976;2022-09-21T03:03:27;7.90;;;3.30;;
59685;SDS011;45554;51.096;16.976;2022-09-21T03:06:00;6.40;;;2.70;;
59685;SDS011;45554;51.096;16.976;2022-09-21T03:08:47;11.20;;;3.00;;
59685;SDS011;45554;51.096;16.976;2022-09-21T03:14:44;5.90;;;2.70;;
59685;SDS011;45554;51.096;16.976;2022-09-21T03:17:29;6.80;;;3.30;;
59685;SDS011;45554;51.096;16.976;2022-09-21T03:20:13;6.70;;;2.90;;
59685;SDS011;45554;51.096;16.976;2022-09-21T03:23:04;7.40;;;4.20;;
59685;SDS011;45554;51.096;16.976;2022-09-21T03:25:33;9.30;;;3.70;;
59685;SDS011;45554;51.096;16.976;2022-09-21T03:28:03;7.90;;;3.30;;
59685;SDS011;45554;51.096;16.976;2022-09-21T03:30:32;6.80;;;3.50;;
59685;SDS011;45554;51.096;16.976;2022-09-21T03:33:09;8.00;;;3.70;;
59685;SDS011;45554;51.096;16.976;2022-09-21T03:35:53;6.70;;;3.60;;
59685;SDS011;45554;51.096;16.976;2022-09-21T03:38:25;8.50;;;4.20;;
59685;SDS011;45554;51.096;16.976;2022-09-21T03:41:03;9.10;;;4.10;;
59685;SDS011;45554;51.096;16.976;2022-09-21T03:43:35;8.50;;;4.40;;
59685;SDS011;45554;51.096;16.976;2022-09-21T03:49:18;8.20;;;4.40;;
59685;SDS011;45554;51.096;16.976;2022-09-21T03:51:54;8.00;;;4.50;;
59685;SDS011;45554;51.096;16.976;2022-09-21T03:54:28;8.80;;;4.50;;
59685;SDS011;45554;51.096;16.976;2022-09-21T03:57:57;8.90;;;4.80;;
59685;SDS011;45554;51.096;16.976;2022-09-21T04:00:38;9.70;;;5.30;;
59685;SDS011;45554;51.096;16.976;2022-09-21T04:06:09;11.10;;;5.30;;
59685;SDS011;45554;51.096;16.976;2022-09-21T04:08:49;9.10;;;5.00;;
59685;SDS011;45554;51.096;16.976;2022-09-21T04:14:29;10.60;;;5.80;;
59685;SDS011;45554;51.096;16.976;2022-09-21T04:17:10;9.90;;;5.40;;
59685;SDS011;45554;51.096;16.976;2022-09-21T04:19:57;10.60;;;5.90;;
59685;SDS011;45554;51.096;16.976;2022-09-21T04:22:45;11.40;;;5.30;;
59685;SDS011;45554;51.096;16.976;2022-09-21T04:25:25;10.40;;;5.70;;
59685;SDS011;45554;51.096;16.976;2022-09-21T04:28:15;9.20;;;5.10;;
59685;SDS011;45554;51.096;16.976;2022-09-21T04:31:11;8.30;;;4.80;;
59685;SDS011;45554;51.096;16.976;2022-09-21T04:34:06;12.70;;;5.40;;
59685;SDS011;45554;51.096;16.976;2022-09-21T04:36:52;10.60;;;6.00;;
59685;SDS011;45554;51.096;16.976;2022-09-21T04:39:48;10.30;;;5.10;;
59685;SDS011;45554;51.096;16.976;2022-09-21T04:42:34;9.90;;;5.60;;
59685;SDS011;45554;51.096;16.976;2022-09-21T04:45:19;10.80;;;5.90;;
59685;SDS011;45554;51.096;16.976;2022-09-21T04:47:51;10.20;;;5.50;;
59685;SDS011;45554;51.096;16.976;2022-09-21T04:50:21;9.80;;;5.80;;
59685;SDS011;45554;51.096;16.976;2022-09-21T04:53:03;11.50;;;5.80;;
59685;SDS011;45554;51.096;16.976;2022-09-21T04:55:47;10.80;;;5.60;;
59685;SDS011;45554;51.096;16.976;2022-09-21T04:58:16;9.60;;;5.40;;
59685;SDS011;45554;51.096;16.976;2022-09-21T05:00:56;11.10;;;5.70;;
59685;SDS011;45554;51.096;16.976;2022-09-21T05:03:39;10.30;;;5.30;;
59685;SDS011;45554;51.096;16.976;2022-09-21T05:06:14;9.90;;;5.20;;
59685;SDS011;45554;51.096;16.976;2022-09-21T05:09:18;10.80;;;6.00;;
59685;SDS011;45554;51.096;16.976;2022-09-21T05:12:13;9.60;;;5.70;;
59685;SDS011;45554;51.096;16.976;2022-09-21T05:14:46;8.40;;;5.30;;
59685;SDS011;45554;51.096;16.976;2022-09-21T05:17:17;8.60;;;4.80;;
59685;SDS011;45554;51.096;16.976;2022-09-21T05:19:49;8.90;;;5.70;;
59685;SDS011;45554;51.096;16.976;2022-09-21T05:22:29;9.30;;;5.40;;
59685;SDS011;45554;51.096;16.976;2022-09-21T05:25:06;10.70;;;5.50;;
59685;SDS011;45554;51.096;16.976;2022-09-21T05:27:42;12.00;;;6.20;;
59685;SDS011;45554;51.096;16.976;2022-09-21T05:30:12;9.80;;;5.70;;
59685;SDS011;45554;51.096;16.976;2022-09-21T05:38:15;10.90;;;5.50;;
59685;SDS011;45554;51.096;16.976;2022-09-21T05:40:46;11.10;;;6.90;;
59685;SDS011;45554;51.096;16.976;2022-09-21T05:43:23;11.70;;;5.90;;
59685;SDS011;45554;51.096;16.976;2022-09-21T05:46:09;12.30;;;7.10;;
59685;SDS011;45554;51.096;16.976;2022-09-21T05:48:44;13.90;;;6.70;;
59685;SDS011;45554;51.096;16.976;2022-09-21T05:59:34;11.50;;;6.30;;
59685;SDS011;45554;51.096;16.976;2022-09-21T06:05:15;9.30;;;5.80;;
59685;SDS011;45554;51.096;16.976;2022-09-21T06:07:48;9.70;;;6.00;;
59685;SDS011;45554;51.096;16.976;2022-09-21T06:10:32;10.80;;;5.50;;
59685;SDS011;45554;51.096;16.976;2022-09-21T06:13:04;9.30;;;5.30;;
59685;SDS011;45554;51.096;16.976;2022-09-21T06:15:39;11.70;;;5.80;;
59685;SDS011;45554;51.096;16.976;2022-09-21T06:18:09;12.00;;;6.50;;
59685;SDS011;45554;51.096;16.976;2022-09-21T06:20:49;10.70;;;6.00;;
59685;SDS011;45554;51.096;16.976;2022-09-21T06:23:20;12.60;;;6.30;;
59685;SDS011;45554;51.096;16.976;2022-09-21T06:25:52;10.10;;;6.40;;
59685;SDS011;45554;51.096;16.976;2022-09-21T06:28:25;11.80;;;7.00;;
59685;SDS011;45554;51.096;16.976;2022-09-21T06:33:24;9.90;;;6.30;;
59685;SDS011;45554;51.096;16.976;2022-09-21T06:36:03;11.30;;;7.00;;
59685;SDS011;45554;51.096;16.976;2022-09-21T06:38:33;12.60;;;6.70;;
59685;SDS011;45554;51.096;16.976;2022-09-21T06:41:05;13.50;;;7.10;;
59685;SDS011;45554;51.096;16.976;2022-09-21T06:43:42;15.20;;;7.10;;
59685;SDS011;45554;51.096;16.976;2022-09-21T06:46:18;13.00;;;6.60;;
59685;SDS011;45554;51.096;16.976;2022-09-21T06:48:56;11.20;;;7.30;;
59685;SDS011;45554;51.096;16.976;2022-09-21T06:51:28;11.20;;;7.10;;
59685;SDS011;45554;51.096;16.976;2022-09-21T06:54:01;12.70;;;7.00;;
59685;SDS011;45554;51.096;16.976;2022-09-21T06:56:34;11.60;;;7.30;;
59685;SDS011;45554;51.096;16.976;2022-09-21T06:59:21;11.70;;;6.80;;
59685;SDS011;45554;51.096;16.976;2022-09-21T07:02:16;13.00;;;7.90;;
59685;SDS011;45554;51.096;16.976;2022-09-21T07:04:46;12.80;;;8.40;;
59685;SDS011;45554;51.096;16.976;2022-09-21T07:07:32;10.10;;;6.70;;
59685;SDS011;45554;51.096;16.976;2022-09-21T07:12:51;12.80;;;7.50;;
59685;SDS011;45554;51.096;16.976;2022-09-21T07:15:22;12.10;;;7.20;;
59685;SDS011;45554;51.096;16.976;2022-09-21T07:17:56;11.90;;;7.40;;
59685;SDS011;45554;51.096;16.976;2022-09-21T07:20:32;13.40;;;8.30;;
59685;SDS011;45554;51.096;16.976;2022-09-21T07:23:08;12.80;;;8.30;;
59685;SDS011;45554;51.096;16.976;2022-09-21T07:25:47;12.80;;;7.70;;
59685;SDS011;45554;51.096;16.976;2022-09-21T07:28:19;11.40;;;7.10;;
59685;SDS011;45554;51.096;16.976;2022-09-21T07:30:51;13.70;;;9.20;;
59685;SDS011;45554;51.096;16.976;2022-09-21T07:33:19;12.30;;;8.10;;
59685;SDS011;45554;51.096;16.976;2022-09-21T07:35:53;11.80;;;7.20;;
59685;SDS011;45554;51.096;16.976;2022-09-21T07:38:36;10.50;;;7.50;;
59685;SDS011;45554;51.096;16.976;2022-09-21T07:41:17;11.40;;;8.00;;
59685;SDS011;45554;51.096;16.976;2022-09-21T07:44:03;11.40;;;7.40;;
59685;SDS011;45554;51.096;16.976;2022-09-21T07:46:32;11.90;;;7.60;;
59685;SDS011;45554;51.096;16.976;2022-09-21T07:49:03;13.10;;;8.40;;
59685;SDS011;45554;51.096;16.976;2022-09-21T07:54:03;11.20;;;7.90;;
59685;SDS011;45554;51.096;16.976;2022-09-21T07:56:36;11.50;;;7.70;;
59685;SDS011;45554;51.096;16.976;2022-09-21T07:59:17;11.00;;;7.90;;
59685;SDS011;45554;51.096;16.976;2022-09-21T08:05:00;10.80;;;6.10;;
59685;SDS011;45554;51.096;16.976;2022-09-21T08:07:34;12.30;;;7.30;;
59685;SDS011;45554;51.096;16.976;2022-09-21T08:10:02;10.20;;;6.90;;
59685;SDS011;45554;51.096;16.976;2022-09-21T08:12:31;11.00;;;7.20;;
59685;SDS011;45554;51.096;16.976;2022-09-21T08:15:07;11.10;;;6.40;;
59685;SDS011;45554;51.096;16.976;2022-09-21T08:17:56;10.90;;;7.10;;
59685;SDS011;45554;51.096;16.976;2022-09-21T08:20:28;10.60;;;6.70;;
59685;SDS011;45554;51.096;16.976;2022-09-21T08:23:14;9.70;;;6.30;;
59685;SDS011;45554;51.096;16.976;2022-09-21T08:25:51;9.20;;;6.30;;
59685;SDS011;45554;51.096;16.976;2022-09-21T08:28:21;9.60;;;6.70;;
59685;SDS011;45554;51.096;16.976;2022-09-21T08:30:50;10.00;;;6.10;;
59685;SDS011;45554;51.096;16.976;2022-09-21T08:33:18;9.60;;;6.10;;
59685;SDS011;45554;51.096;16.976;2022-09-21T08:35:57;10.30;;;6.90;;
59685;SDS011;45554;51.096;16.976;2022-09-21T08:38:31;10.30;;;6.70;;
59685;SDS011;45554;51.096;16.976;2022-09-21T08:41:01;9.30;;;6.10;;
59685;SDS011;45554;51.096;16.976;2022-09-21T08:43:41;9.20;;;5.60;;
59685;SDS011;45554;51.096;16.976;2022-09-21T08:46:12;9.50;;;5.60;;
59685;SDS011;45554;51.096;16.976;2022-09-21T08:49:01;8.70;;;5.20;;
59685;SDS011;45554;51.096;16.976;2022-09-21T08:51:44;7.30;;;4.90;;
59685;SDS011;45554;51.096;16.976;2022-09-21T08:54:19;8.00;;;4.70;;
59685;SDS011;45554;51.096;16.976;2022-09-21T08:56:59;8.00;;;4.40;;
59685;SDS011;45554;51.096;16.976;2022-09-21T08:59:33;8.70;;;5.00;;
59685;SDS011;45554;51.096;16.976;2022-09-21T09:20:43;5.90;;;3.70;;
59685;SDS011;45554;51.096;16.976;2022-09-21T09:23:33;5.90;;;3.70;;
59685;SDS011;45554;51.096;16.976;2022-09-21T09:32:13;7.30;;;3.30;;
59685;SDS011;45554;51.096;16.976;2022-09-21T09:34:52;5.90;;;3.30;;
59685;SDS011;45554;51.096;16.976;2022-09-21T09:37:32;6.70;;;3.60;;
59685;SDS011;45554;51.096;16.976;2022-09-21T09:40:07;7.50;;;3.50;;
59685;SDS011;45554;51.096;16.976;2022-09-21T09:42:53;7.00;;;3.30;;
59685;SDS011;45554;51.096;16.976;2022-09-21T09:48:28;4.90;;;2.70;;
59685;SDS011;45554;51.096;16.976;2022-09-21T09:51:06;4.40;;;2.40;;
59685;SDS011;45554;51.096;16.976;2022-09-21T09:53:37;4.70;;;2.80;;
59685;SDS011;45554;51.096;16.976;2022-09-21T09:56:09;4.70;;;2.60;;
59685;SDS011;45554;51.096;16.976;2022-09-21T09:58:44;4.50;;;2.50;;
59685;SDS011;45554;51.096;16.976;2022-09-21T10:01:37;5.70;;;2.70;;
59685;SDS011;45554;51.096;16.976;2022-09-21T10:04:14;4.70;;;2.50;;
59685;SDS011;45554;51.096;16.976;2022-09-21T10:06:48;7.80;;;4.20;;
59685;SDS011;45554;51.096;16.976;2022-09-21T10:09:25;6.70;;;3.60;;
59685;SDS011;45554;51.096;16.976;2022-09-21T10:12:23;7.10;;;3.80;;
59685;SDS011;45554;51.096;16.976;2022-09-21T10:14:53;5.80;;;3.50;;
59685;SDS011;45554;51.096;16.976;2022-09-21T10:17:27;6.20;;;3.00;;
59685;SDS011;45554;51.096;16.976;2022-09-21T10:20:03;7.30;;;2.70;;
59685;SDS011;45554;51.096;16.976;2022-09-21T10:22:44;5.60;;;2.40;;
59685;SDS011;45554;51.096;16.976;2022-09-21T10:25:20;5.50;;;2.70;;
59685;SDS011;45554;51.096;16.976;2022-09-21T10:27:52;6.60;;;3.00;;
59685;SDS011;45554;51.096;16.976;2022-09-21T10:33:16;6.00;;;2.60;;
59685;SDS011;45554;51.096;16.976;2022-09-21T10:35:50;5.20;;;2.70;;
59685;SDS011;45554;51.096;16.976;2022-09-21T10:38:20;5.00;;;2.30;;
59685;SDS011;45554;51.096;16.976;2022-09-21T10:40:58;4.50;;;2.60;;
59685;SDS011;45554;51.096;16.976;2022-09-21T10:46:05;5.50;;;2.40;;
59685;SDS011;45554;51.096;16.976;2022-09-21T10:48:37;5.90;;;2.70;;
59685;SDS011;45554;51.096;16.976;2022-09-21T10:51:25;5.10;;;2.60;;
59685;SDS011;45554;51.096;16.976;2022-09-21T10:53:56;4.30;;;2.30;;
59685;SDS011;45554;51.096;16.976;2022-09-21T10:56:26;4.20;;;1.80;;
59685;SDS011;45554;51.096;16.976;2022-09-21T11:01:51;3.70;;;2.10;;
59685;SDS011;45554;51.096;16.976;2022-09-21T11:04:39;4.40;;;2.20;;
59685;SDS011;45554;51.096;16.976;2022-09-21T11:10:07;4.60;;;2.00;;
59685;SDS011;45554;51.096;16.976;2022-09-21T11:15:26;5.70;;;2.10;;
59685;SDS011;45554;51.096;16.976;2022-09-21T11:18:20;5.10;;;1.90;;
59685;SDS011;45554;51.096;16.976;2022-09-21T11:20:57;4.10;;;1.90;;
59685;SDS011;45554;51.096;16.976;2022-09-21T11:26:26;3.40;;;1.80;;
59685;SDS011;45554;51.096;16.976;2022-09-21T11:29:02;4.80;;;1.80;;
59685;SDS011;45554;51.096;16.976;2022-09-21T11:34:38;4.30;;;1.80;;
59685;SDS011;45554;51.096;16.976;2022-09-21T11:37:23;3.60;;;1.90;;
59685;SDS011;45554;51.096;16.976;2022-09-21T11:40:11;3.20;;;1.60;;
59685;SDS011;45554;51.096;16.976;2022-09-21T11:43:04;3.20;;;1.70;;
59685;SDS011;45554;51.096;16.976;2022-09-21T11:46:01;3.50;;;1.70;;
59685;SDS011;45554;51.096;16.976;2022-09-21T11:58:18;2.60;;;1.40;;
59685;SDS011;45554;51.096;16.976;2022-09-21T12:06:42;2.30;;;1.40;;
59685;SDS011;45554;51.096;16.976;2022-09-21T12:23:20;3.30;;;1.20;;
59685;SDS011;45554;51.096;16.976;2022-09-21T12:26:06;2.60;;;1.60;;
59685;SDS011;45554;51.096;16.976;2022-09-21T12:28:43;1.80;;;1.20;;
59685;SDS011;45554;51.096;16.976;2022-09-21T12:31:23;2.30;;;1.20;;
59685;SDS011;45554;51.096;16.976;2022-09-21T12:33:57;1.50;;;1.20;;
59685;SDS011;45554;51.096;16.976;2022-09-21T12:36:36;3.90;;;1.50;;
59685;SDS011;45554;51.096;16.976;2022-09-21T12:39:28;2.90;;;1.40;;
59685;SDS011;45554;51.096;16.976;2022-09-21T12:42:18;1.50;;;1.10;;
59685;SDS011;45554;51.096;16.976;2022-09-21T12:44:58;2.20;;;1.20;;
59685;SDS011;45554;51.096;16.976;2022-09-21T12:50:18;2.20;;;1.20;;
59685;SDS011;45554;51.096;16.976;2022-09-21T12:52:50;3.70;;;1.10;;
59685;SDS011;45554;51.096;16.976;2022-09-21T12:55:33;2.90;;;1.20;;
59685;SDS011;45554;51.096;16.976;2022-09-21T13:04:20;2.50;;;1.20;;
59685;SDS011;45554;51.096;16.976;2022-09-21T13:09:39;3.40;;;1.40;;
59685;SDS011;45554;51.096;16.976;2022-09-21T13:12:16;3.70;;;1.60;;
59685;SDS011;45554;51.096;16.976;2022-09-21T13:14:58;4.00;;;2.20;;
59685;SDS011;45554;51.096;16.976;2022-09-21T13:20:32;3.30;;;1.40;;
59685;SDS011;45554;51.096;16.976;2022-09-21T13:23:13;3.30;;;1.40;;
59685;SDS011;45554;51.096;16.976;2022-09-21T13:25:48;2.90;;;1.50;;
59685;SDS011;45554;51.096;16.976;2022-09-21T13:34:21;3.40;;;1.30;;
59685;SDS011;45554;51.096;16.976;2022-09-21T13:37:21;2.10;;;1.20;;
59685;SDS011;45554;51.096;16.976;2022-09-21T13:40:28;2.00;;;1.00;;
59685;SDS011;45554;51.096;16.976;2022-09-21T13:42:55;1.80;;;1.40;;
59685;SDS011;45554;51.096;16.976;2022-09-21T13:45:47;4.10;;;1.40;;
59685;SDS011;45554;51.096;16.976;2022-09-21T13:48:20;1.70;;;1.20;;
59685;SDS011;45554;51.096;16.976;2022-09-21T13:50:56;2.00;;;1.10;;
59685;SDS011;45554;51.096;16.976;2022-09-21T13:53:33;4.20;;;1.30;;
59685;SDS011;45554;51.096;16.976;2022-09-21T13:56:13;5.40;;;1.50;;
59685;SDS011;45554;51.096;16.976;2022-09-21T13:58:48;2.10;;;1.40;;
59685;SDS011;45554;51.096;16.976;2022-09-21T14:01:20;4.90;;;1.60;;
59685;SDS011;45554;51.096;16.976;2022-09-21T14:04:17;4.00;;;2.60;;
59685;SDS011;45554;51.096;16.976;2022-09-21T14:06:52;3.70;;;2.40;;
59685;SDS011;45554;51.096;16.976;2022-09-21T14:12:05;3.70;;;1.80;;
59685;SDS011;45554;51.096;16.976;2022-09-21T14:14:38;4.30;;;1.70;;
59685;SDS011;45554;51.096;16.976;2022-09-21T14:18:06;2.20;;;1.30;;
59685;SDS011;45554;51.096;16.976;2022-09-21T14:20:03;2.70;;;1.50;;
59685;SDS011;45554;51.096;16.976;2022-09-21T14:22:34;3.30;;;1.40;;
59685;SDS011;45554;51.096;16.976;2022-09-21T14:25:15;2.50;;;1.20;;
59685;SDS011;45554;51.096;16.976;2022-09-21T14:27:57;3.10;;;1.40;;
59685;SDS011;45554;51.096;16.976;2022-09-21T14:30:31;1.80;;;1.20;;
59685;SDS011;45554;51.096;16.976;2022-09-21T14:35:46;1.70;;;1.30;;
59685;SDS011;45554;51.096;16.976;2022-09-21T14:40:49;2.40;;;1.20;;
59685;SDS011;45554;51.096;16.976;2022-09-21T14:43:20;1.90;;;1.20;;
59685;SDS011;45554;51.096;16.976;2022-09-21T14:46:14;4.30;;;1.30;;
59685;SDS011;45554;51.096;16.976;2022-09-21T15:12:38;2.50;;;1.30;;
59685;SDS011;45554;51.096;16.976;2022-09-21T15:15:28;2.40;;;1.50;;
59685;SDS011;45554;51.096;16.976;2022-09-21T15:18:11;2.00;;;1.30;;
59685;SDS011;45554;51.096;16.976;2022-09-21T15:21:00;3.00;;;1.40;;
59685;SDS011;45554;51.096;16.976;2022-09-21T15:23:37;2.70;;;1.60;;
59685;SDS011;45554;51.096;16.976;2022-09-21T15:26:08;2.80;;;1.60;;
59685;SDS011;45554;51.096;16.976;2022-09-21T15:28:42;5.60;;;1.90;;
59685;SDS011;45554;51.096;16.976;2022-09-21T15:31:39;2.00;;;1.40;;
59685;SDS011;45554;51.096;16.976;2022-09-21T15:34:30;3.80;;;1.40;;
59685;SDS011;45554;51.096;16.976;2022-09-21T15:37:20;2.50;;;1.30;;
59685;SDS011;45554;51.096;16.976;2022-09-21T15:40:00;1.90;;;1.20;;
59685;SDS011;45554;51.096;16.976;2022-09-21T15:42:29;1.80;;;1.00;;
59685;SDS011;45554;51.096;16.976;2022-09-21T15:45:17;1.70;;;1.00;;
59685;SDS011;45554;51.096;16.976;2022-09-21T15:47:45;1.50;;;1.00;;
59685;SDS011;45554;51.096;16.976;2022-09-21T15:50:14;3.00;;;1.20;;
59685;SDS011;45554;51.096;16.976;2022-09-21T15:52:51;1.70;;;1.20;;
59685;SDS011;45554;51.096;16.976;2022-09-21T15:55:31;1.90;;;1.10;;
59685;SDS011;45554;51.096;16.976;2022-09-21T16:00:29;2.80;;;1.20;;
59685;SDS011;45554;51.096;16.976;2022-09-21T16:03:01;2.80;;;1.30;;
59685;SDS011;45554;51.096;16.976;2022-09-21T16:05:40;2.00;;;1.30;;
59685;SDS011;45554;51.096;16.976;2022-09-21T16:08:19;2.30;;;1.30;;
59685;SDS011;45554;51.096;16.976;2022-09-21T16:10:49;1.90;;;1.10;;
59685;SDS011;45554;51.096;16.976;2022-09-21T16:13:23;3.60;;;1.10;;
59685;SDS011;45554;51.096;16.976;2022-09-21T16:16:11;4.10;;;1.20;;
59685;SDS011;45554;51.096;16.976;2022-09-21T16:18:44;1.90;;;0.90;;
59685;SDS011;45554;51.096;16.976;2022-09-21T16:21:31;1.60;;;0.90;;
59685;SDS011;45554;51.096;16.976;2022-09-21T16:24:09;1.60;;;0.80;;
59685;SDS011;45554;51.096;16.976;2022-09-21T16:26:54;1.50;;;0.90;;
59685;SDS011;45554;51.096;16.976;2022-09-21T16:29:27;2.20;;;1.00;;
59685;SDS011;45554;51.096;16.976;2022-09-21T16:37:59;2.50;;;1.10;;
59685;SDS011;45554;51.096;16.976;2022-09-21T16:40:28;2.30;;;1.10;;
59685;SDS011;45554;51.096;16.976;2022-09-21T16:42:56;4.50;;;1.20;;
59685;SDS011;45554;51.096;16.976;2022-09-21T16:45:28;1.70;;;1.00;;
59685;SDS011;45554;51.096;16.976;2022-09-21T16:47:58;2.10;;;0.90;;
59685;SDS011;45554;51.096;16.976;2022-09-21T16:50:26;5.00;;;0.90;;
59685;SDS011;45554;51.096;16.976;2022-09-21T16:52:56;2.90;;;0.90;;
59685;SDS011;45554;51.096;16.976;2022-09-21T16:55:27;2.20;;;0.90;;
59685;SDS011;45554;51.096;16.976;2022-09-21T16:57:56;2.50;;;1.20;;
59685;SDS011;45554;51.096;16.976;2022-09-21T17:00:37;2.20;;;1.00;;
59685;SDS011;45554;51.096;16.976;2022-09-21T17:03:07;2.00;;;1.30;;
59685;SDS011;45554;51.096;16.976;2022-09-21T17:05:37;2.20;;;1.00;;
59685;SDS011;45554;51.096;16.976;2022-09-21T17:08:08;2.50;;;1.30;;
59685;SDS011;45554;51.096;16.976;2022-09-21T17:10:38;2.80;;;1.60;;
59685;SDS011;45554;51.096;16.976;2022-09-21T17:13:07;4.60;;;1.50;;
59685;SDS011;45554;51.096;16.976;2022-09-21T17:18:11;4.50;;;1.80;;
59685;SDS011;45554;51.096;16.976;2022-09-21T17:20:43;5.70;;;2.40;;
59685;SDS011;45554;51.096;16.976;2022-09-21T17:23:12;4.40;;;1.80;;
59685;SDS011;45554;51.096;16.976;2022-09-21T17:25:40;5.00;;;1.90;;
59685;SDS011;45554;51.096;16.976;2022-09-21T17:28:20;6.60;;;3.30;;
59685;SDS011;45554;51.096;16.976;2022-09-21T17:30:52;3.90;;;1.50;;
59685;SDS011;45554;51.096;16.976;2022-09-21T17:33:23;6.60;;;2.90;;
59685;SDS011;45554;51.096;16.976;2022-09-21T17:35:52;5.70;;;2.50;;
59685;SDS011;45554;51.096;16.976;2022-09-21T17:38:23;8.10;;;2.40;;
59685;SDS011;45554;51.096;16.976;2022-09-21T17:49:08;4.40;;;2.00;;
59685;SDS011;45554;51.096;16.976;2022-09-21T17:51:45;3.50;;;1.90;;
59685;SDS011;45554;51.096;16.976;2022-09-21T17:54:34;4.90;;;2.00;;
59685;SDS011;45554;51.096;16.976;2022-09-21T17:59:57;4.10;;;2.10;;
59685;SDS011;45554;51.096;16.976;2022-09-21T18:02:31;7.20;;;2.60;;
59685;SDS011;45554;51.096;16.976;2022-09-21T18:05:02;5.70;;;2.70;;
59685;SDS011;45554;51.096;16.976;2022-09-21T18:07:41;7.40;;;2.90;;
59685;SDS011;45554;51.096;16.976;2022-09-21T18:10:10;6.80;;;3.20;;
59685;SDS011;45554;51.096;16.976;2022-09-21T18:12:45;7.00;;;3.30;;
59685;SDS011;45554;51.096;16.976;2022-09-21T18:15:33;7.40;;;3.50;;
59685;SDS011;45554;51.096;16.976;2022-09-21T18:20:42;7.20;;;3.50;;
59685;SDS011;45554;51.096;16.976;2022-09-21T18:23:23;7.30;;;3.40;;
59685;SDS011;45554;51.096;16.976;2022-09-21T18:25:57;7.10;;;3.70;;
59685;SDS011;45554;51.096;16.976;2022-09-21T18:36:49;8.50;;;4.00;;
59685;SDS011;45554;51.096;16.976;2022-09-21T18:45:02;9.50;;;5.50;;
59685;SDS011;45554;51.096;16.976;2022-09-21T18:47:42;8.80;;;4.50;;
59685;SDS011;45554;51.096;16.976;2022-09-21T18:56:13;12.50;;;6.10;;
59685;SDS011;45554;51.096;16.976;2022-09-21T18:58:42;10.60;;;5.40;;
59685;SDS011;45554;51.096;16.976;2022-09-21T19:01:10;10.80;;;5.50;;
59685;SDS011;45554;51.096;16.976;2022-09-21T19:03:41;6.80;;;3.70;;
59685;SDS011;45554;51.096;16.976;2022-09-21T19:25:43;6.60;;;3.50;;
59685;SDS011;45554;51.096;16.976;2022-09-21T19:28:23;8.50;;;4.40;;
59685;SDS011;45554;51.096;16.976;2022-09-21T19:31:14;12.90;;;6.90;;
59685;SDS011;45554;51.096;16.976;2022-09-21T19:33:47;10.30;;;4.00;;
59685;SDS011;45554;51.096;16.976;2022-09-21T19:36:18;8.30;;;4.60;;
59685;SDS011;45554;51.096;16.976;2022-09-21T19:38:50;7.70;;;4.00;;
59685;SDS011;45554;51.096;16.976;2022-09-21T19:41:31;7.90;;;3.80;;
59685;SDS011;45554;51.096;16.976;2022-09-21T19:47:29;7.80;;;4.00;;
59685;SDS011;45554;51.096;16.976;2022-09-21T19:52:53;9.00;;;4.00;;
59685;SDS011;45554;51.096;16.976;2022-09-21T19:55:43;6.70;;;3.60;;
59685;SDS011;45554;51.096;16.976;2022-09-21T19:58:33;7.00;;;3.70;;
59685;SDS011;45554;51.096;16.976;2022-09-21T20:01:21;8.10;;;3.70;;
59685;SDS011;45554;51.096;16.976;2022-09-21T20:03:49;8.20;;;3.40;;
59685;SDS011;45554;51.096;16.976;2022-09-21T20:06:26;7.30;;;3.60;;
59685;SDS011;45554;51.096;16.976;2022-09-21T20:09:05;7.90;;;3.70;;
59685;SDS011;45554;51.096;16.976;2022-09-21T20:11:46;8.50;;;3.80;;
59685;SDS011;45554;51.096;16.976;2022-09-21T20:17:03;6.50;;;2.90;;
59685;SDS011;45554;51.096;16.976;2022-09-21T20:22:30;5.90;;;3.20;;
59685;SDS011;45554;51.096;16.976;2022-09-21T20:28:03;6.80;;;2.70;;
59685;SDS011;45554;51.096;16.976;2022-09-21T20:30:38;6.50;;;3.00;;
59685;SDS011;45554;51.096;16.976;2022-09-21T20:33:13;5.30;;;2.90;;
59685;SDS011;45554;51.096;16.976;2022-09-21T20:35:43;9.70;;;3.20;;
59685;SDS011;45554;51.096;16.976;2022-09-21T20:38:12;6.40;;;2.90;;
59685;SDS011;45554;51.096;16.976;2022-09-21T20:43:09;7.50;;;2.40;;
59685;SDS011;45554;51.096;16.976;2022-09-21T20:45:40;4.30;;;2.20;;
59685;SDS011;45554;51.096;16.976;2022-09-21T20:48:20;4.80;;;2.40;;
59685;SDS011;45554;51.096;16.976;2022-09-21T20:50:48;5.50;;;2.30;;
59685;SDS011;45554;51.096;16.976;2022-09-21T20:53:38;4.90;;;2.20;;